sensor_id;sensor_type;location;lat;lon;timestamp;P1;durP1;ratioP1;P2;durP2;ratioP2
49800;SDS011;35698;50.232;30.540;2023-04-01T00:00:05;13.47;;;10.69;;
49800;SDS011;35698;50.232;30.540;2023-04-01T00:01:10;13.09;;;10.08;;
49800;SDS011;35698;50.232;30.540;2023-04-01T00:02:23;11.32;;;9.51;;
49800;SDS011;35698;50.232;30.540;2023-04-01T00:03:27;12.70;;;10.45;;
49800;SDS011;35698;50.232;30.540;2023-04-01T00:04:39;13.76;;;10.90;;
49800;SDS011;35698;50.232;30.540;2023-04-01T00:05:42;12.46;;;10.08;;
49800;SDS011;35698;50.232;30.540;2023-04-01T00:06:46;15.03;;;10.43;;
49800;SDS011;35698;50.232;30.540;2023-04-01T00:07:49;13.47;;;11.56;;
49800;SDS011;35698;50.232;30.540;2023-04-01T00:08:53;12.45;;;9.87;;
49800;SDS011;35698;50.232;30.540;2023-04-01T00:36:13;14.87;;;10.38;;
49800;SDS011;35698;50.232;30.540;2023-04-01T00:37:26;15.98;;;11.66;;
49800;SDS011;35698;50.232;30.540;2023-04-01T00:38:30;14.44;;;11.20;;
49800;SDS011;35698;50.232;30.540;2023-04-01T00:39:34;17.05;;;11.51;;
49800;SDS011;35698;50.232;30.540;2023-04-01T00:40:39;16.38;;;12.05;;
49800;SDS011;35698;50.232;30.540;2023-04-01T00:41:52;12.61;;;10.85;;
49800;SDS011;35698;50.232;30.540;2023-04-01T00:42:55;18.27;;;12.69;;
49800;SDS011;35698;50.232;30.540;2023-04-01T00:44:11;18.32;;;12.93;;
49800;SDS011;35698;50.232;30.540;2023-04-01T00:45:48;14.99;;;11.63;;
49800;SDS011;35698;50.232;30.540;2023-04-01T00:46:51;16.31;;;11.65;;
49800;SDS011;35698;50.232;30.540;2023-04-01T00:48:05;14.83;;;11.69;;
49800;SDS011;35698;50.232;30.540;2023-04-01T00:49:21;17.65;;;12.00;;
49800;SDS011;35698;50.232;30.540;2023-04-01T00:50:45;14.33;;;11.51;;
49800;SDS011;35698;50.232;30.540;2023-04-01T00:52:02;13.88;;;11.37;;
49800;SDS011;35698;50.232;30.540;2023-04-01T00:53:24;15.79;;;11.59;;
49800;SDS011;35698;50.232;30.540;2023-04-01T00:54:36;15.06;;;11.85;;
49800;SDS011;35698;50.232;30.540;2023-04-01T00:55:42;15.15;;;12.02;;
49800;SDS011;35698;50.232;30.540;2023-04-01T00:58:07;16.36;;;11.87;;
49800;SDS011;35698;50.232;30.540;2023-04-01T00:59:21;16.82;;;12.37;;
49800;SDS011;35698;50.232;30.540;2023-04-01T01:00:27;14.47;;;11.95;;
49800;SDS011;35698;50.232;30.540;2023-04-01T01:01:41;14.87;;;11.31;;
49800;SDS011;35698;50.232;30.540;2023-04-01T01:02:45;14.95;;;11.71;;
49800;SDS011;35698;50.232;30.540;2023-04-01T01:03:49;16.86;;;12.25;;
49800;SDS011;35698;50.232;30.540;2023-04-01T01:06:29;14.25;;;11.88;;
49800;SDS011;35698;50.232;30.540;2023-04-01T01:09:28;14.63;;;11.20;;
49800;SDS011;35698;50.232;30.540;2023-04-01T01:10:35;16.61;;;11.52;;
49800;SDS011;35698;50.232;30.540;2023-04-01T01:16:27;15.79;;;11.52;;
49800;SDS011;35698;50.232;30.540;2023-04-01T01:20:48;14.51;;;11.73;;
49800;SDS011;35698;50.232;30.540;2023-04-01T01:27:22;15.36;;;10.56;;
49800;SDS011;35698;50.232;30.540;2023-04-01T01:30:06;19.08;;;12.65;;
49800;SDS011;35698;50.232;30.540;2023-04-01T01:35:48;15.81;;;10.73;;
49800;SDS011;35698;50.232;30.540;2023-04-01T01:37:13;16.95;;;12.16;;
49800;SDS011;35698;50.232;30.540;2023-04-01T01:38:31;15.94;;;11.33;;
49800;SDS011;35698;50.232;30.540;2023-04-01T01:39:36;15.08;;;11.34;;
49800;SDS011;35698;50.232;30.540;2023-04-01T01:42:27;16.81;;;11.40;;
49800;SDS011;35698;50.232;30.540;2023-04-01T01:43:51;16.27;;;11.96;;
49800;SDS011;35698;50.232;30.540;2023-04-01T01:45:05;23.66;;;12.32;;
49800;SDS011;35698;50.232;30.540;2023-04-01T01:46:13;15.56;;;10.72;;
49800;SDS011;35698;50.232;30.540;2023-04-01T01:47:27;13.44;;;10.79;;
49800;SDS011;35698;50.232;30.540;2023-04-01T01:48:32;16.63;;;11.81;;
49800;SDS011;35698;50.232;30.540;2023-04-01T01:49:39;18.94;;;12.50;;
49800;SDS011;35698;50.232;30.540;2023-04-01T01:50:52;15.16;;;10.77;;
49800;SDS011;35698;50.232;30.540;2023-04-01T01:51:56;16.60;;;11.29;;
49800;SDS011;35698;50.232;30.540;2023-04-01T01:53:09;17.86;;;11.91;;
49800;SDS011;35698;50.232;30.540;2023-04-01T01:54:15;15.23;;;11.21;;
49800;SDS011;35698;50.232;30.540;2023-04-01T01:55:28;16.11;;;11.92;;
49800;SDS011;35698;50.232;30.540;2023-04-01T01:56:33;15.68;;;11.62;;
49800;SDS011;35698;50.232;30.540;2023-04-01T01:57:57;16.89;;;11.30;;
49800;SDS011;35698;50.232;30.540;2023-04-01T01:59:07;15.39;;;11.96;;
49800;SDS011;35698;50.232;30.540;2023-04-01T02:00:14;15.41;;;11.53;;
49800;SDS011;35698;50.232;30.540;2023-04-01T02:01:23;15.99;;;11.73;;
49800;SDS011;35698;50.232;30.540;2023-04-01T02:02:36;15.29;;;11.19;;
49800;SDS011;35698;50.232;30.540;2023-04-01T02:03:39;14.85;;;10.76;;
49800;SDS011;35698;50.232;30.540;2023-04-01T02:04:45;14.34;;;11.23;;
49800;SDS011;35698;50.232;30.540;2023-04-01T02:05:50;15.53;;;11.40;;
49800;SDS011;35698;50.232;30.540;2023-04-01T02:07:07;15.05;;;11.35;;
49800;SDS011;35698;50.232;30.540;2023-04-01T02:08:14;13.78;;;11.03;;
49800;SDS011;35698;50.232;30.540;2023-04-01T02:09:20;16.11;;;11.56;;
49800;SDS011;35698;50.232;30.540;2023-04-01T02:10:24;17.21;;;11.89;;
49800;SDS011;35698;50.232;30.540;2023-04-01T02:11:41;15.96;;;11.17;;
49800;SDS011;35698;50.232;30.540;2023-04-01T02:12:53;14.72;;;10.65;;
49800;SDS011;35698;50.232;30.540;2023-04-01T02:15:24;14.26;;;10.28;;
49800;SDS011;35698;50.232;30.540;2023-04-01T02:16:32;19.50;;;11.20;;
49800;SDS011;35698;50.232;30.540;2023-04-01T02:17:48;13.43;;;9.87;;
49800;SDS011;35698;50.232;30.540;2023-04-01T02:18:53;17.18;;;11.78;;
49800;SDS011;35698;50.232;30.540;2023-04-01T02:19:59;14.87;;;10.63;;
49800;SDS011;35698;50.232;30.540;2023-04-01T02:21:19;15.61;;;11.68;;
49800;SDS011;35698;50.232;30.540;2023-04-01T02:22:28;14.60;;;11.30;;
49800;SDS011;35698;50.232;30.540;2023-04-01T02:23:42;16.23;;;11.72;;
49800;SDS011;35698;50.232;30.540;2023-04-01T02:24:47;14.98;;;11.31;;
49800;SDS011;35698;50.232;30.540;2023-04-01T02:25:53;16.39;;;11.64;;
49800;SDS011;35698;50.232;30.540;2023-04-01T02:26:57;13.83;;;10.88;;
49800;SDS011;35698;50.232;30.540;2023-04-01T02:28:09;16.68;;;10.89;;
49800;SDS011;35698;50.232;30.540;2023-04-01T02:29:15;15.76;;;10.48;;
49800;SDS011;35698;50.232;30.540;2023-04-01T02:30:29;16.53;;;11.52;;
49800;SDS011;35698;50.232;30.540;2023-04-01T02:31:36;14.23;;;10.56;;
49800;SDS011;35698;50.232;30.540;2023-04-01T02:32:47;13.20;;;10.15;;
49800;SDS011;35698;50.232;30.540;2023-04-01T02:33:51;16.58;;;10.51;;
49800;SDS011;35698;50.232;30.540;2023-04-01T02:36:31;18.80;;;11.04;;
49800;SDS011;35698;50.232;30.540;2023-04-01T02:37:35;18.72;;;11.61;;
49800;SDS011;35698;50.232;30.540;2023-04-01T02:38:54;15.20;;;11.87;;
49800;SDS011;35698;50.232;30.540;2023-04-01T02:40:01;16.38;;;11.80;;
49800;SDS011;35698;50.232;30.540;2023-04-01T02:41:24;13.62;;;10.89;;
49800;SDS011;35698;50.232;30.540;2023-04-01T02:42:35;14.91;;;11.78;;
49800;SDS011;35698;50.232;30.540;2023-04-01T02:43:38;16.14;;;11.91;;
49800;SDS011;35698;50.232;30.540;2023-04-01T02:45:00;14.28;;;11.36;;
49800;SDS011;35698;50.232;30.540;2023-04-01T02:46:04;14.21;;;11.05;;
49800;SDS011;35698;50.232;30.540;2023-04-01T02:47:07;16.54;;;12.54;;
49800;SDS011;35698;50.232;30.540;2023-04-01T02:48:18;13.61;;;10.64;;
49800;SDS011;35698;50.232;30.540;2023-04-01T02:49:21;15.04;;;11.43;;
49800;SDS011;35698;50.232;30.540;2023-04-01T02:50:43;15.19;;;10.96;;
49800;SDS011;35698;50.232;30.540;2023-04-01T02:51:54;16.07;;;12.31;;
49800;SDS011;35698;50.232;30.540;2023-04-01T02:52:57;13.72;;;11.18;;
49800;SDS011;35698;50.232;30.540;2023-04-01T02:54:19;16.69;;;11.70;;
49800;SDS011;35698;50.232;30.540;2023-04-01T02:55:25;14.23;;;11.22;;
49800;SDS011;35698;50.232;30.540;2023-04-01T02:56:36;17.32;;;10.83;;
49800;SDS011;35698;50.232;30.540;2023-04-01T02:57:39;16.99;;;11.99;;
49800;SDS011;35698;50.232;30.540;2023-04-01T02:59:00;13.54;;;11.10;;
49800;SDS011;35698;50.232;30.540;2023-04-01T03:00:04;13.98;;;11.06;;
49800;SDS011;35698;50.232;30.540;2023-04-01T03:01:15;15.51;;;11.53;;
49800;SDS011;35698;50.232;30.540;2023-04-01T03:02:19;14.09;;;11.12;;
49800;SDS011;35698;50.232;30.540;2023-04-01T03:03:40;17.62;;;10.94;;
49800;SDS011;35698;50.232;30.540;2023-04-01T03:04:44;17.19;;;11.83;;
49800;SDS011;35698;50.232;30.540;2023-04-01T03:06:06;15.01;;;11.24;;
49800;SDS011;35698;50.232;30.540;2023-04-01T03:07:29;14.53;;;11.24;;
49800;SDS011;35698;50.232;30.540;2023-04-01T03:08:40;17.87;;;11.47;;
49800;SDS011;35698;50.232;30.540;2023-04-01T03:09:44;14.85;;;11.51;;
49800;SDS011;35698;50.232;30.540;2023-04-01T03:10:55;15.74;;;11.03;;
49800;SDS011;35698;50.232;30.540;2023-04-01T03:12:01;15.29;;;11.56;;
49800;SDS011;35698;50.232;30.540;2023-04-01T03:13:05;14.09;;;10.63;;
49800;SDS011;35698;50.232;30.540;2023-04-01T03:14:08;14.19;;;10.74;;
49800;SDS011;35698;50.232;30.540;2023-04-01T03:15:30;14.68;;;11.87;;
49800;SDS011;35698;50.232;30.540;2023-04-01T03:16:51;16.18;;;11.42;;
49800;SDS011;35698;50.232;30.540;2023-04-01T03:18:12;13.66;;;10.90;;
49800;SDS011;35698;50.232;30.540;2023-04-01T03:19:15;15.04;;;11.65;;
49800;SDS011;35698;50.232;30.540;2023-04-01T03:20:26;15.01;;;11.07;;
49800;SDS011;35698;50.232;30.540;2023-04-01T03:21:29;17.29;;;12.13;;
49800;SDS011;35698;50.232;30.540;2023-04-01T03:22:40;15.21;;;11.20;;
49800;SDS011;35698;50.232;30.540;2023-04-01T03:23:45;15.52;;;10.65;;
49800;SDS011;35698;50.232;30.540;2023-04-01T03:24:49;14.83;;;10.74;;
49800;SDS011;35698;50.232;30.540;2023-04-01T03:26:00;13.91;;;10.68;;
49800;SDS011;35698;50.232;30.540;2023-04-01T03:27:04;15.49;;;11.37;;
49800;SDS011;35698;50.232;30.540;2023-04-01T03:28:15;15.99;;;10.82;;
49800;SDS011;35698;50.232;30.540;2023-04-01T03:29:18;15.20;;;10.68;;
49800;SDS011;35698;50.232;30.540;2023-04-01T03:30:22;13.21;;;10.76;;
49800;SDS011;35698;50.232;30.540;2023-04-01T03:31:33;13.17;;;10.56;;
49800;SDS011;35698;50.232;30.540;2023-04-01T03:32:36;14.58;;;10.29;;
49800;SDS011;35698;50.232;30.540;2023-04-01T03:33:47;12.01;;;9.57;;
49800;SDS011;35698;50.232;30.540;2023-04-01T03:34:50;12.44;;;10.23;;
49800;SDS011;35698;50.232;30.540;2023-04-01T03:35:54;13.18;;;9.86;;
49800;SDS011;35698;50.232;30.540;2023-04-01T03:37:15;15.06;;;10.43;;
49800;SDS011;35698;50.232;30.540;2023-04-01T03:38:26;13.17;;;9.98;;
49800;SDS011;35698;50.232;30.540;2023-04-01T03:39:30;13.13;;;10.21;;
49800;SDS011;35698;50.232;30.540;2023-04-01T03:40:42;16.64;;;11.59;;
49800;SDS011;35698;50.232;30.540;2023-04-01T03:41:46;13.27;;;10.95;;
49800;SDS011;35698;50.232;30.540;2023-04-01T03:43:00;15.37;;;11.51;;
49800;SDS011;35698;50.232;30.540;2023-04-01T03:44:04;14.13;;;10.21;;
49800;SDS011;35698;50.232;30.540;2023-04-01T03:45:25;14.90;;;10.74;;
49800;SDS011;35698;50.232;30.540;2023-04-01T03:46:47;12.74;;;10.32;;
49800;SDS011;35698;50.232;30.540;2023-04-01T03:47:58;14.53;;;10.66;;
49800;SDS011;35698;50.232;30.540;2023-04-01T03:49:01;14.30;;;10.09;;
49800;SDS011;35698;50.232;30.540;2023-04-01T03:50:23;12.78;;;10.69;;
49800;SDS011;35698;50.232;30.540;2023-04-01T03:51:45;15.33;;;10.11;;
49800;SDS011;35698;50.232;30.540;2023-04-01T03:52:56;15.54;;;10.69;;
49800;SDS011;35698;50.232;30.540;2023-04-01T03:53:59;14.39;;;10.08;;
49800;SDS011;35698;50.232;30.540;2023-04-01T03:55:20;13.51;;;9.84;;
49800;SDS011;35698;50.232;30.540;2023-04-01T03:56:42;13.12;;;9.84;;
49800;SDS011;35698;50.232;30.540;2023-04-01T03:57:53;14.03;;;11.12;;
49800;SDS011;35698;50.232;30.540;2023-04-01T03:58:56;15.08;;;11.07;;
49800;SDS011;35698;50.232;30.540;2023-04-01T04:00:18;15.26;;;11.02;;
49800;SDS011;35698;50.232;30.540;2023-04-01T04:01:24;15.28;;;10.16;;
49800;SDS011;35698;50.232;30.540;2023-04-01T04:02:35;13.78;;;10.89;;
49800;SDS011;35698;50.232;30.540;2023-04-01T04:03:38;16.15;;;11.49;;
49800;SDS011;35698;50.232;30.540;2023-04-01T04:05:00;16.71;;;11.51;;
49800;SDS011;35698;50.232;30.540;2023-04-01T04:06:04;13.18;;;9.93;;
49800;SDS011;35698;50.232;30.540;2023-04-01T04:07:15;13.76;;;10.48;;
49800;SDS011;35698;50.232;30.540;2023-04-01T04:08:18;16.06;;;10.16;;
49800;SDS011;35698;50.232;30.540;2023-04-01T04:09:40;14.64;;;10.41;;
49800;SDS011;35698;50.232;30.540;2023-04-01T04:10:44;14.48;;;10.25;;
49800;SDS011;35698;50.232;30.540;2023-04-01T04:11:55;12.51;;;9.84;;
49800;SDS011;35698;50.232;30.540;2023-04-01T04:12:58;14.18;;;10.34;;
49800;SDS011;35698;50.232;30.540;2023-04-01T04:14:01;14.26;;;10.05;;
49800;SDS011;35698;50.232;30.540;2023-04-01T04:15:05;14.51;;;10.29;;
49800;SDS011;35698;50.232;30.540;2023-04-01T04:16:10;12.58;;;10.05;;
49800;SDS011;35698;50.232;30.540;2023-04-01T04:17:21;14.97;;;10.95;;
49800;SDS011;35698;50.232;30.540;2023-04-01T04:18:25;17.23;;;11.93;;
49800;SDS011;35698;50.232;30.540;2023-04-01T04:19:31;14.53;;;10.78;;
49800;SDS011;35698;50.232;30.540;2023-04-01T04:23:19;13.50;;;9.76;;
49800;SDS011;35698;50.232;30.540;2023-04-01T04:25:57;13.15;;;10.00;;
49800;SDS011;35698;50.232;30.540;2023-04-01T04:27:10;11.88;;;9.78;;
49800;SDS011;35698;50.232;30.540;2023-04-01T04:28:14;11.54;;;9.66;;
49800;SDS011;35698;50.232;30.540;2023-04-01T04:29:43;10.85;;;9.32;;
49800;SDS011;35698;50.232;30.540;2023-04-01T04:30:46;12.46;;;9.21;;
49800;SDS011;35698;50.232;30.540;2023-04-01T04:31:58;13.37;;;9.99;;
49800;SDS011;35698;50.232;30.540;2023-04-01T04:33:01;13.11;;;9.88;;
49800;SDS011;35698;50.232;30.540;2023-04-01T04:34:04;11.99;;;9.87;;
49800;SDS011;35698;50.232;30.540;2023-04-01T04:35:15;16.69;;;10.09;;
49800;SDS011;35698;50.232;30.540;2023-04-01T04:37:42;12.73;;;9.58;;
49800;SDS011;35698;50.232;30.540;2023-04-01T04:38:45;11.95;;;9.78;;
49800;SDS011;35698;50.232;30.540;2023-04-01T04:39:49;12.53;;;10.01;;
49800;SDS011;35698;50.232;30.540;2023-04-01T04:40:52;12.84;;;10.01;;
49800;SDS011;35698;50.232;30.540;2023-04-01T04:42:05;13.46;;;10.52;;
49800;SDS011;35698;50.232;30.540;2023-04-01T04:44:22;14.69;;;10.96;;
49800;SDS011;35698;50.232;30.540;2023-04-01T04:46:55;14.29;;;10.32;;
49800;SDS011;35698;50.232;30.540;2023-04-01T04:48:00;16.83;;;10.53;;
49800;SDS011;35698;50.232;30.540;2023-04-01T04:49:22;14.61;;;10.54;;
49800;SDS011;35698;50.232;30.540;2023-04-01T04:50:25;14.89;;;9.91;;
49800;SDS011;35698;50.232;30.540;2023-04-01T04:51:36;15.08;;;11.28;;
49800;SDS011;35698;50.232;30.540;2023-04-01T04:52:42;13.81;;;10.34;;
49800;SDS011;35698;50.232;30.540;2023-04-01T04:54:09;16.34;;;11.01;;
49800;SDS011;35698;50.232;30.540;2023-04-01T04:55:20;16.31;;;10.83;;
49800;SDS011;35698;50.232;30.540;2023-04-01T04:56:23;14.09;;;10.73;;
49800;SDS011;35698;50.232;30.540;2023-04-01T04:57:44;14.19;;;10.92;;
49800;SDS011;35698;50.232;30.540;2023-04-01T04:58:55;14.14;;;11.41;;
49800;SDS011;35698;50.232;30.540;2023-04-01T04:59:59;16.64;;;11.68;;
49800;SDS011;35698;50.232;30.540;2023-04-01T05:01:22;14.12;;;11.23;;
49800;SDS011;35698;50.232;30.540;2023-04-01T05:02:44;17.52;;;11.71;;
49800;SDS011;35698;50.232;30.540;2023-04-01T05:04:06;15.31;;;10.51;;
49800;SDS011;35698;50.232;30.540;2023-04-01T05:05:17;13.38;;;9.98;;
49800;SDS011;35698;50.232;30.540;2023-04-01T05:06:20;13.32;;;9.98;;
49800;SDS011;35698;50.232;30.540;2023-04-01T05:07:42;13.54;;;9.98;;
49800;SDS011;35698;50.232;30.540;2023-04-01T05:09:03;14.44;;;9.39;;
49800;SDS011;35698;50.232;30.540;2023-04-01T05:10:25;13.02;;;9.75;;
49800;SDS011;35698;50.232;30.540;2023-04-01T05:11:28;12.59;;;10.04;;
49800;SDS011;35698;50.232;30.540;2023-04-01T05:12:31;13.68;;;10.01;;
49800;SDS011;35698;50.232;30.540;2023-04-01T05:14:58;11.72;;;9.47;;
49800;SDS011;35698;50.232;30.540;2023-04-01T05:16:09;17.16;;;10.64;;
49800;SDS011;35698;50.232;30.540;2023-04-01T05:17:21;14.61;;;10.33;;
49800;SDS011;35698;50.232;30.540;2023-04-01T05:18:32;13.49;;;10.66;;
49800;SDS011;35698;50.232;30.540;2023-04-01T05:19:35;14.07;;;10.58;;
49800;SDS011;35698;50.232;30.540;2023-04-01T05:20:39;13.53;;;10.74;;
49800;SDS011;35698;50.232;30.540;2023-04-01T05:22:00;13.19;;;10.26;;
49800;SDS011;35698;50.232;30.540;2023-04-01T05:23:11;15.58;;;11.02;;
49800;SDS011;35698;50.232;30.540;2023-04-01T05:24:15;14.67;;;10.49;;
49800;SDS011;35698;50.232;30.540;2023-04-01T05:25:26;15.69;;;11.33;;
49800;SDS011;35698;50.232;30.540;2023-04-01T05:26:30;15.38;;;10.92;;
49800;SDS011;35698;50.232;30.540;2023-04-01T05:27:44;14.38;;;10.36;;
49800;SDS011;35698;50.232;30.540;2023-04-01T05:28:47;14.24;;;10.28;;
49800;SDS011;35698;50.232;30.540;2023-04-01T05:29:58;15.49;;;10.49;;
49800;SDS011;35698;50.232;30.540;2023-04-01T05:31:02;14.18;;;10.31;;
49800;SDS011;35698;50.232;30.540;2023-04-01T05:32:06;15.28;;;9.66;;
49800;SDS011;35698;50.232;30.540;2023-04-01T05:33:18;14.42;;;10.08;;
49800;SDS011;35698;50.232;30.540;2023-04-01T05:34:21;13.62;;;10.10;;
49800;SDS011;35698;50.232;30.540;2023-04-01T05:35:32;12.84;;;10.56;;
49800;SDS011;35698;50.232;30.540;2023-04-01T05:36:35;12.17;;;9.39;;
49800;SDS011;35698;50.232;30.540;2023-04-01T05:37:49;13.31;;;9.18;;
49800;SDS011;35698;50.232;30.540;2023-04-01T05:38:56;14.49;;;10.16;;
49800;SDS011;35698;50.232;30.540;2023-04-01T05:40:17;11.34;;;9.15;;
49800;SDS011;35698;50.232;30.540;2023-04-01T05:41:28;12.46;;;9.16;;
49800;SDS011;35698;50.232;30.540;2023-04-01T05:42:32;13.94;;;9.91;;
49800;SDS011;35698;50.232;30.540;2023-04-01T05:44:58;13.87;;;10.05;;
49800;SDS011;35698;50.232;30.540;2023-04-01T05:46:01;13.05;;;10.12;;
49800;SDS011;35698;50.232;30.540;2023-04-01T05:47:10;13.43;;;10.02;;
49800;SDS011;35698;50.232;30.540;2023-04-01T05:48:13;14.27;;;10.46;;
49800;SDS011;35698;50.232;30.540;2023-04-01T05:49:16;13.40;;;9.99;;
49800;SDS011;35698;50.232;30.540;2023-04-01T05:50:20;15.29;;;10.83;;
49800;SDS011;35698;50.232;30.540;2023-04-01T05:51:31;14.87;;;10.48;;
49800;SDS011;35698;50.232;30.540;2023-04-01T05:52:34;15.37;;;9.88;;
49800;SDS011;35698;50.232;30.540;2023-04-01T05:53:56;14.22;;;10.52;;
49800;SDS011;35698;50.232;30.540;2023-04-01T05:55:07;13.45;;;10.56;;
49800;SDS011;35698;50.232;30.540;2023-04-01T05:56:12;13.06;;;10.11;;
49800;SDS011;35698;50.232;30.540;2023-04-01T05:57:33;16.35;;;11.00;;
49800;SDS011;35698;50.232;30.540;2023-04-01T05:58:50;15.94;;;10.34;;
49800;SDS011;35698;50.232;30.540;2023-04-01T05:59:54;14.53;;;10.69;;
49800;SDS011;35698;50.232;30.540;2023-04-01T06:01:16;13.85;;;10.07;;
49800;SDS011;35698;50.232;30.540;2023-04-01T06:02:27;13.23;;;9.87;;
49800;SDS011;35698;50.232;30.540;2023-04-01T06:03:31;14.94;;;10.36;;
49800;SDS011;35698;50.232;30.540;2023-04-01T06:04:54;12.60;;;9.86;;
49800;SDS011;35698;50.232;30.540;2023-04-01T06:06:14;15.61;;;10.25;;
49800;SDS011;35698;50.232;30.540;2023-04-01T06:07:19;13.58;;;9.46;;
49800;SDS011;35698;50.232;30.540;2023-04-01T06:08:31;12.47;;;9.51;;
49800;SDS011;35698;50.232;30.540;2023-04-01T06:09:44;13.13;;;10.07;;
49800;SDS011;35698;50.232;30.540;2023-04-01T06:15:25;14.46;;;10.16;;
49800;SDS011;35698;50.232;30.540;2023-04-01T06:16:51;13.17;;;9.52;;
49800;SDS011;35698;50.232;30.540;2023-04-01T06:26:51;13.47;;;9.56;;
49800;SDS011;35698;50.232;30.540;2023-04-01T06:29:41;15.37;;;10.19;;
49800;SDS011;35698;50.232;30.540;2023-04-01T06:31:04;12.99;;;9.93;;
49800;SDS011;35698;50.232;30.540;2023-04-01T06:42:16;14.35;;;10.62;;
49800;SDS011;35698;50.232;30.540;2023-04-01T06:46:19;11.91;;;9.65;;
49800;SDS011;35698;50.232;30.540;2023-04-01T06:47:51;12.24;;;9.19;;
49800;SDS011;35698;50.232;30.540;2023-04-01T06:50:26;9.97;;;8.35;;
49800;SDS011;35698;50.232;30.540;2023-04-01T06:53:07;18.09;;;9.27;;
49800;SDS011;35698;50.232;30.540;2023-04-01T06:54:52;10.99;;;8.83;;
49800;SDS011;35698;50.232;30.540;2023-04-01T06:58:58;13.63;;;10.04;;
49800;SDS011;35698;50.232;30.540;2023-04-01T07:00:27;13.41;;;9.78;;
49800;SDS011;35698;50.232;30.540;2023-04-01T07:01:49;12.74;;;9.07;;
49800;SDS011;35698;50.232;30.540;2023-04-01T07:04:32;13.85;;;8.74;;
49800;SDS011;35698;50.232;30.540;2023-04-01T07:05:46;13.58;;;9.24;;
49800;SDS011;35698;50.232;30.540;2023-04-01T07:06:52;12.62;;;9.68;;
49800;SDS011;35698;50.232;30.540;2023-04-01T07:08:21;14.09;;;10.02;;
49800;SDS011;35698;50.232;30.540;2023-04-01T07:09:50;11.99;;;9.11;;
49800;SDS011;35698;50.232;30.540;2023-04-01T07:11:04;13.37;;;10.14;;
49800;SDS011;35698;50.232;30.540;2023-04-01T07:12:11;14.46;;;9.89;;
49800;SDS011;35698;50.232;30.540;2023-04-01T07:13:54;12.82;;;9.72;;
49800;SDS011;35698;50.232;30.540;2023-04-01T07:15:22;16.47;;;10.52;;
49800;SDS011;35698;50.232;30.540;2023-04-01T07:16:51;13.87;;;9.59;;
49800;SDS011;35698;50.232;30.540;2023-04-01T07:17:57;14.01;;;10.54;;
49800;SDS011;35698;50.232;30.540;2023-04-01T07:19:32;14.28;;;10.80;;
49800;SDS011;35698;50.232;30.540;2023-04-01T07:21:04;13.68;;;10.01;;
49800;SDS011;35698;50.232;30.540;2023-04-01T07:23:39;17.20;;;11.12;;
49800;SDS011;35698;50.232;30.540;2023-04-01T07:24:53;16.69;;;11.77;;
49800;SDS011;35698;50.232;30.540;2023-04-01T07:26:00;19.41;;;12.91;;
49800;SDS011;35698;50.232;30.540;2023-04-01T07:27:13;17.01;;;11.17;;
49800;SDS011;35698;50.232;30.540;2023-04-01T07:28:17;23.18;;;13.61;;
49800;SDS011;35698;50.232;30.540;2023-04-01T07:29:28;21.75;;;15.47;;
49800;SDS011;35698;50.232;30.540;2023-04-01T07:33:27;29.08;;;18.79;;
49800;SDS011;35698;50.232;30.540;2023-04-01T07:36:07;30.82;;;19.47;;
49800;SDS011;35698;50.232;30.540;2023-04-01T07:42:00;34.62;;;21.29;;
49800;SDS011;35698;50.232;30.540;2023-04-01T07:43:21;41.29;;;22.07;;
49800;SDS011;35698;50.232;30.540;2023-04-01T07:48:09;40.27;;;22.19;;
49800;SDS011;35698;50.232;30.540;2023-04-01T07:49:29;39.57;;;22.98;;
49800;SDS011;35698;50.232;30.540;2023-04-01T07:52:04;36.16;;;21.42;;
49800;SDS011;35698;50.232;30.540;2023-04-01T07:54:41;40.44;;;23.73;;
49800;SDS011;35698;50.232;30.540;2023-04-01T07:56:06;35.94;;;21.14;;
49800;SDS011;35698;50.232;30.540;2023-04-01T07:57:19;38.85;;;23.12;;
49800;SDS011;35698;50.232;30.540;2023-04-01T07:58:43;39.99;;;23.12;;
49800;SDS011;35698;50.232;30.540;2023-04-01T08:05:57;41.41;;;23.44;;
49800;SDS011;35698;50.232;30.540;2023-04-01T08:07:36;40.74;;;23.35;;
49800;SDS011;35698;50.232;30.540;2023-04-01T08:12:01;39.56;;;23.96;;
49800;SDS011;35698;50.232;30.540;2023-04-01T08:15:07;41.22;;;23.57;;
49800;SDS011;35698;50.232;30.540;2023-04-01T08:17:59;36.93;;;23.22;;
49800;SDS011;35698;50.232;30.540;2023-04-01T08:27:26;36.70;;;23.72;;
49800;SDS011;35698;50.232;30.540;2023-04-01T08:34:51;37.96;;;23.65;;
49800;SDS011;35698;50.232;30.540;2023-04-01T08:36:22;33.38;;;21.49;;
49800;SDS011;35698;50.232;30.540;2023-04-01T08:37:45;35.09;;;22.88;;
49800;SDS011;35698;50.232;30.540;2023-04-01T08:39:16;35.39;;;21.01;;
49800;SDS011;35698;50.232;30.540;2023-04-01T08:43:30;31.12;;;20.91;;
49800;SDS011;35698;50.232;30.540;2023-04-01T08:44:52;31.31;;;20.66;;
49800;SDS011;35698;50.232;30.540;2023-04-01T08:47:46;31.96;;;21.05;;
49800;SDS011;35698;50.232;30.540;2023-04-01T08:55:22;27.26;;;19.81;;
49800;SDS011;35698;50.232;30.540;2023-04-01T08:56:41;30.72;;;19.07;;
49800;SDS011;35698;50.232;30.540;2023-04-01T09:03:15;26.38;;;17.07;;
49800;SDS011;35698;50.232;30.540;2023-04-01T09:07:43;23.19;;;16.66;;
49800;SDS011;35698;50.232;30.540;2023-04-01T09:12:19;21.96;;;16.39;;
49800;SDS011;35698;50.232;30.540;2023-04-01T09:13:59;23.13;;;16.99;;
49800;SDS011;35698;50.232;30.540;2023-04-01T09:18:32;20.22;;;14.07;;
49800;SDS011;35698;50.232;30.540;2023-04-01T09:27:52;21.98;;;14.52;;
49800;SDS011;35698;50.232;30.540;2023-04-01T09:35:47;17.15;;;10.71;;
49800;SDS011;35698;50.232;30.540;2023-04-01T09:40:55;16.87;;;11.31;;
49800;SDS011;35698;50.232;30.540;2023-04-01T09:42:13;16.67;;;10.23;;
49800;SDS011;35698;50.232;30.540;2023-04-01T09:43:26;17.81;;;10.10;;
49800;SDS011;35698;50.232;30.540;2023-04-01T09:54:42;23.81;;;8.56;;
49800;SDS011;35698;50.232;30.540;2023-04-01T09:56:14;11.88;;;8.26;;
49800;SDS011;35698;50.232;30.540;2023-04-01T10:22:43;12.42;;;8.54;;
49800;SDS011;35698;50.232;30.540;2023-04-01T10:27:09;13.10;;;9.03;;
49800;SDS011;35698;50.232;30.540;2023-04-01T10:36:14;15.59;;;10.22;;
49800;SDS011;35698;50.232;30.540;2023-04-01T10:40:38;12.71;;;8.71;;
49800;SDS011;35698;50.232;30.540;2023-04-01T10:45:31;13.48;;;8.12;;
49800;SDS011;35698;50.232;30.540;2023-04-01T11:17:42;12.19;;;8.59;;
49800;SDS011;35698;50.232;30.540;2023-04-01T11:20:28;12.36;;;8.72;;
49800;SDS011;35698;50.232;30.540;2023-04-01T11:26:04;8.11;;;6.26;;
49800;SDS011;35698;50.232;30.540;2023-04-01T11:42:18;6.41;;;4.75;;
49800;SDS011;35698;50.232;30.540;2023-04-01T11:43:41;9.11;;;5.59;;
49800;SDS011;35698;50.232;30.540;2023-04-01T11:56:13;10.56;;;4.66;;
49800;SDS011;35698;50.232;30.540;2023-04-01T12:01:59;5.21;;;4.11;;
49800;SDS011;35698;50.232;30.540;2023-04-01T12:15:56;5.69;;;3.89;;
49800;SDS011;35698;50.232;30.540;2023-04-01T12:20:38;6.40;;;4.72;;
49800;SDS011;35698;50.232;30.540;2023-04-01T12:29:03;5.86;;;3.48;;